Sm Seahawk — 3FLV3 — position and weather

sailwx.info

Track history (hours):
 
Tides and Currents Weather Stations Pressure Air Temp Water Temp Dewpoint Dewpoint Depression Visibility Wind Speed Wind Dir Waves Ship Positions

Sm Seahawk

Last reported at 2018-Jan-26 17:36 UTC. Time now 2018-Feb-20 10:12 UTC.
Position N 22°00' E 121°11'.
Warning: this ship's position is 24 days out of date.

Length 295 m; draft 11 m.

Type: Tanker. MMSI: 355658000.

Date/timePositionNaut miles runAvg speedWind from/ knotsBaromVisibWave heightAir tempDewpointWater temp
2018-Jan-26 17:36N 22°00' E 121°11'217.4
2018-Jan-26 17:30N 22°01' E 121°12'1017.8
2018-Jan-26 16:58N 22°09' E 121°19'918.1
2018-Jan-26 16:30N 22°16' E 121°24'1018.6
2018-Jan-26 15:58N 22°24' E 121°30'2717.6
2018-Jan-26 14:27N 22°46' E 121°46'817.2
2018-Jan-26 13:59N 22°53' E 121°50'6816.6
2018-Jan-26 09:56N 23°55' E 122°21'717.5
2018-Jan-26 09:30N 24°01' E 122°24'917.5
2018-Jan-26 09:00N 24°09' E 122°28'917.5
2018-Jan-26 08:30N 24°17' E 122°32'917.3
2018-Jan-26 08:00N 24°25' E 122°36'816.8
2018-Jan-26 07:30N 24°33' E 122°40'816.7
2018-Jan-26 07:00N 24°40' E 122°44'816.6
2018-Jan-26 06:30N 24°48' E 122°48'816.9
2018-Jan-26 06:00N 24°56' E 122°52'917.1
2018-Jan-26 05:31N 25°03' E 122°56'917.7
2018-Jan-26 05:01N 25°11' E 122°60'918.0
2018-Jan-26 04:30N 25°20' E 123°04'  
Track history (hours):
 
Tides and Currents Weather Stations Pressure Air Temp Water Temp Dewpoint Dewpoint Depression Visibility Wind Speed Wind Dir Waves Ship Positions

Sm Seahawk

Last reported at 2018-Jan-26 17:36 UTC. Time now 2018-Feb-20 10:12 UTC.
Position N 22°00' E 121°11'.
Warning: this ship's position is 24 days out of date.

Length 295 m; draft 11 m.

Type: Tanker. MMSI: 355658000.

Date/timePositionNaut miles runAvg speedWind from/ knotsBaromVisibWave heightAir tempDewpointWater temp
2018-Jan-26 17:36N 22°00' E 121°11'217.4
2018-Jan-26 17:30N 22°01' E 121°12'1017.8
2018-Jan-26 16:58N 22°09' E 121°19'918.1
2018-Jan-26 16:30N 22°16' E 121°24'1018.6
2018-Jan-26 15:58N 22°24' E 121°30'2717.6
2018-Jan-26 14:27N 22°46' E 121°46'817.2
2018-Jan-26 13:59N 22°53' E 121°50'6816.6
2018-Jan-26 09:56N 23°55' E 122°21'717.5
2018-Jan-26 09:30N 24°01' E 122°24'917.5
2018-Jan-26 09:00N 24°09' E 122°28'917.5
2018-Jan-26 08:30N 24°17' E 122°32'917.3
2018-Jan-26 08:00N 24°25' E 122°36'816.8
2018-Jan-26 07:30N 24°33' E 122°40'816.7
2018-Jan-26 07:00N 24°40' E 122°44'816.6
2018-Jan-26 06:30N 24°48' E 122°48'816.9
2018-Jan-26 06:00N 24°56' E 122°52'917.1
2018-Jan-26 05:31N 25°03' E 122°56'917.7
2018-Jan-26 05:01N 25°11' E 122°60'918.0
2018-Jan-26 04:30N 25°20' E 123°04'  

Dump ship's entire track history